This is the latest recevied weather packets stored in our database for station/object LRCT. If no packets are shown the sender has not sent any weather packets the latest 10 day(s).
| Time | Temp. | Humidity | Pressure | Rain* | Wind** | Luminosity | Snow |
|---|---|---|---|---|---|---|---|
| 1777896236 | 23.89° C | 25% | 1017 hPa | - | - | - | - |
| 1777895336 | 22.78° C | 31% | 1018 hPa | - | - | - | - |
| 1777894436 | 22.78° C | 31% | 1018 hPa | - | - | - | - |
| 1777893571 | 22.78° C | 31% | 1018 hPa | - | - | - | - |
| 1777892637 | 22.78° C | 31% | 1018 hPa | - | - | - | - |
| 1777891736 | 22.78° C | 27% | 1018 hPa | - | - | - | - |
| 1777890837 | 22.78° C | 27% | 1018 hPa | - | - | - | - |
| 1777889944 | 22.78° C | 27% | 1018 hPa | - | - | - | - |
| 1777889036 | 22.78° C | 27% | 1018 hPa | - | - | - | - |
| 1777884566 | 17.78° C | 40% | 1019 hPa | - | - | - | - |
| 1777883637 | 17.78° C | 40% | 1019 hPa | - | - | - | - |
| 1777882736 | 17.78° C | 40% | 1019 hPa | - | - | - | - |
| 1777881836 | 17.78° C | 40% | 1019 hPa | - | - | - | - |
| 1777877336 | 11.11° C | 58% | 1019 hPa | - | - | - | - |
| 1777876437 | 11.11° C | 58% | 1019 hPa | - | - | - | - |
| 1777875538 | 11.11° C | 58% | 1019 hPa | - | - | - | - |
| 1777874637 | 11.11° C | 58% | 1019 hPa | - | - | - | - |
| 1777873737 | 7.22° C | 71% | 1019 hPa | - | - | - | - |
| 1777872838 | 7.22° C | 71% | 1019 hPa | - | - | - | - |
| 1777871937 | 7.22° C | 71% | 1019 hPa | - | - | - | - |
| 1777871046 | 7.22° C | 71% | 1019 hPa | - | - | - | - |
| 1777870137 | 2.78° C | 81% | 1019 hPa | - | - | - | - |
| 1777869236 | 2.78° C | 81% | 1019 hPa | - | - | - | - |
| 1777868337 | 2.78° C | 81% | 1019 hPa | - | - | - | - |
| 1777867436 | 2.78° C | 81% | 1019 hPa | - | - | - | - |
* Rain since midnight (hover to see other rain measurements)
** Current wind speed in m/s (hover to see current wind gust speed)